sensor_id;sensor_type;location;lat;lon;timestamp;pressure;altitude;pressure_sealevel;temperature;humidity
77351;BME280;66420;50.246;14.320;2023-04-01T00:00:05;97929.56;;;9.00;75.89
77351;BME280;66420;50.246;14.320;2023-04-01T00:02:50;97926.25;;;8.94;75.77
77351;BME280;66420;50.246;14.320;2023-04-01T00:05:35;97926.13;;;8.90;75.84
77351;BME280;66420;50.246;14.320;2023-04-01T00:08:20;97923.19;;;8.96;75.27
77351;BME280;66420;50.246;14.320;2023-04-01T00:11:05;97926.81;;;8.87;76.19
77351;BME280;66420;50.246;14.320;2023-04-01T00:13:50;97923.75;;;8.89;75.53
77351;BME280;66420;50.246;14.320;2023-04-01T00:16:35;97933.72;;;8.85;76.73
77351;BME280;66420;50.246;14.320;2023-04-01T00:19:20;97925.41;;;8.81;76.22
77351;BME280;66420;50.246;14.320;2023-04-01T00:22:05;97923.97;;;8.84;76.40
77351;BME280;66420;50.246;14.320;2023-04-01T00:24:51;97926.53;;;8.80;75.79
77351;BME280;66420;50.246;14.320;2023-04-01T00:27:36;97927.81;;;8.83;76.70
77351;BME280;66420;50.246;14.320;2023-04-01T00:30:21;97931.19;;;8.80;76.46
77351;BME280;66420;50.246;14.320;2023-04-01T00:33:06;97921.09;;;8.80;75.87
77351;BME280;66420;50.246;14.320;2023-04-01T00:35:52;97927.13;;;8.74;77.13
77351;BME280;66420;50.246;14.320;2023-04-01T00:38:38;97932.69;;;8.77;76.14
77351;BME280;66420;50.246;14.320;2023-04-01T00:41:23;97932.44;;;8.70;76.90
77351;BME280;66420;50.246;14.320;2023-04-01T00:44:16;97932.97;;;8.64;77.08
77351;BME280;66420;50.246;14.320;2023-04-01T00:47:03;97926.28;;;8.61;77.59
77351;BME280;66420;50.246;14.320;2023-04-01T00:49:50;97943.97;;;8.55;78.57
77351;BME280;66420;50.246;14.320;2023-04-01T00:52:36;97933.50;;;8.57;78.10
77351;BME280;66420;50.246;14.320;2023-04-01T00:55:21;97931.47;;;8.54;77.75
77351;BME280;66420;50.246;14.320;2023-04-01T00:58:10;97919.63;;;8.50;78.28
77351;BME280;66420;50.246;14.320;2023-04-01T01:00:56;97922.56;;;8.45;78.17
77351;BME280;66420;50.246;14.320;2023-04-01T01:03:43;97927.56;;;8.43;78.71
77351;BME280;66420;50.246;14.320;2023-04-01T01:09:44;97930.94;;;8.40;79.25
77351;BME280;66420;50.246;14.320;2023-04-01T01:12:44;97924.84;;;8.43;78.73
77351;BME280;66420;50.246;14.320;2023-04-01T01:15:52;97923.56;;;8.40;77.94
77351;BME280;66420;50.246;14.320;2023-04-01T01:21:54;97930.22;;;8.31;78.34
77351;BME280;66420;50.246;14.320;2023-04-01T01:27:58;97933.75;;;8.31;78.55
77351;BME280;66420;50.246;14.320;2023-04-01T01:31:33;97924.56;;;8.36;78.49
77351;BME280;66420;50.246;14.320;2023-04-01T01:34:32;97924.13;;;8.34;78.26
77351;BME280;66420;50.246;14.320;2023-04-01T01:37:24;97925.41;;;8.28;79.23
77351;BME280;66420;50.246;14.320;2023-04-01T01:40:11;97932.47;;;8.29;79.47
77351;BME280;66420;50.246;14.320;2023-04-01T01:42:59;97929.41;;;8.30;79.18
77351;BME280;66420;50.246;14.320;2023-04-01T01:45:49;97931.66;;;8.28;79.65
77351;BME280;66420;50.246;14.320;2023-04-01T01:48:37;97928.81;;;8.25;79.35
77351;BME280;66420;50.246;14.320;2023-04-01T01:51:22;97934.06;;;8.30;79.36
77351;BME280;66420;50.246;14.320;2023-04-01T01:54:12;97933.13;;;8.26;79.96
77351;BME280;66420;50.246;14.320;2023-04-01T01:57:06;97939.53;;;8.30;79.65
77351;BME280;66420;50.246;14.320;2023-04-01T01:59:53;97932.47;;;8.29;79.31
77351;BME280;66420;50.246;14.320;2023-04-01T02:02:40;97937.59;;;8.30;79.72
77351;BME280;66420;50.246;14.320;2023-04-01T02:05:28;97937.28;;;8.32;79.71
77351;BME280;66420;50.246;14.320;2023-04-01T02:08:19;97933.13;;;8.26;80.65
77351;BME280;66420;50.246;14.320;2023-04-01T02:11:10;97929.59;;;8.25;80.32
77351;BME280;66420;50.246;14.320;2023-04-01T02:13:59;97936.84;;;8.21;81.03
77351;BME280;66420;50.246;14.320;2023-04-01T02:16:57;97934.47;;;8.20;80.93
77351;BME280;66420;50.246;14.320;2023-04-01T02:20:03;97937.19;;;8.20;80.52
77351;BME280;66420;50.246;14.320;2023-04-01T02:22:53;97940.84;;;8.24;80.06
77351;BME280;66420;50.246;14.320;2023-04-01T02:25:40;97933.91;;;8.26;79.79
77351;BME280;66420;50.246;14.320;2023-04-01T02:28:26;97924.00;;;8.22;80.79
77351;BME280;66420;50.246;14.320;2023-04-01T02:31:13;97936.50;;;8.23;80.18
77351;BME280;66420;50.246;14.320;2023-04-01T02:33:59;97936.19;;;8.24;79.86
77351;BME280;66420;50.246;14.320;2023-04-01T02:36:45;97936.50;;;8.23;80.81
77351;BME280;66420;50.246;14.320;2023-04-01T02:39:31;97935.84;;;8.26;80.09
77351;BME280;66420;50.246;14.320;2023-04-01T02:42:15;97940.16;;;8.27;80.25
77351;BME280;66420;50.246;14.320;2023-04-01T02:45:01;97949.47;;;8.26;80.45
77351;BME280;66420;50.246;14.320;2023-04-01T02:47:46;97946.41;;;8.27;80.19
77351;BME280;66420;50.246;14.320;2023-04-01T02:50:31;97945.94;;;8.25;80.39
77351;BME280;66420;50.246;14.320;2023-04-01T02:53:16;97946.28;;;8.24;80.77
77351;BME280;66420;50.246;14.320;2023-04-01T02:56:01;97953.78;;;8.27;79.82
77351;BME280;66420;50.246;14.320;2023-04-01T02:58:46;97955.09;;;8.29;80.09
77351;BME280;66420;50.246;14.320;2023-04-01T03:01:31;97960.38;;;8.26;80.43
77351;BME280;66420;50.246;14.320;2023-04-01T03:04:16;97955.09;;;8.29;80.02
77351;BME280;66420;50.246;14.320;2023-04-01T03:07:01;97964.84;;;8.30;79.37
77351;BME280;66420;50.246;14.320;2023-04-01T03:09:46;97969.97;;;8.32;79.56
77351;BME280;66420;50.246;14.320;2023-04-01T03:12:31;97956.69;;;8.30;79.50
77351;BME280;66420;50.246;14.320;2023-04-01T03:15:16;97966.13;;;8.33;79.61
77351;BME280;66420;50.246;14.320;2023-04-01T03:18:01;97961.31;;;8.30;80.00
77351;BME280;66420;50.246;14.320;2023-04-01T03:20:46;97964.66;;;8.35;79.30
77351;BME280;66420;50.246;14.320;2023-04-01T03:23:30;97957.75;;;8.38;79.49
77351;BME280;66420;50.246;14.320;2023-04-01T03:26:16;97958.41;;;8.35;78.69
77351;BME280;66420;50.246;14.320;2023-04-01T03:29:00;97961.59;;;8.37;79.18
77351;BME280;66420;50.246;14.320;2023-04-01T03:31:45;97965.59;;;8.39;78.86
77351;BME280;66420;50.246;14.320;2023-04-01T03:34:29;97976.84;;;8.38;79.57
77351;BME280;66420;50.246;14.320;2023-04-01T03:37:14;97971.84;;;8.40;78.15
77351;BME280;66420;50.246;14.320;2023-04-01T03:39:59;97975.38;;;8.40;79.11
77351;BME280;66420;50.246;14.320;2023-04-01T03:42:44;97972.97;;;8.39;78.34
77351;BME280;66420;50.246;14.320;2023-04-01T03:45:29;97973.94;;;8.34;78.80
77351;BME280;66420;50.246;14.320;2023-04-01T03:48:14;97977.16;;;8.36;79.01
77351;BME280;66420;50.246;14.320;2023-04-01T03:50:59;97973.94;;;8.34;78.22
77351;BME280;66420;50.246;14.320;2023-04-01T03:53:44;97975.91;;;8.34;78.28
77351;BME280;66420;50.246;14.320;2023-04-01T03:56:29;97985.47;;;8.40;78.38
77351;BME280;66420;50.246;14.320;2023-04-01T03:59:14;97976.06;;;8.29;78.36
77351;BME280;66420;50.246;14.320;2023-04-01T04:01:59;97988.09;;;8.28;79.49
77351;BME280;66420;50.246;14.320;2023-04-01T04:04:44;97990.81;;;8.28;79.41
77351;BME280;66420;50.246;14.320;2023-04-01T04:07:30;97996.44;;;8.31;78.50
77351;BME280;66420;50.246;14.320;2023-04-01T04:10:15;97994.84;;;8.30;77.94
77351;BME280;66420;50.246;14.320;2023-04-01T04:13:00;97993.06;;;8.26;78.86
77351;BME280;66420;50.246;14.320;2023-04-01T04:15:44;98001.72;;;8.28;78.50
77351;BME280;66420;50.246;14.320;2023-04-01T04:18:29;97999.09;;;8.40;78.25
77351;BME280;66420;50.246;14.320;2023-04-01T04:21:14;98001.72;;;8.28;78.06
77351;BME280;66420;50.246;14.320;2023-04-01T04:24:00;98009.41;;;8.26;78.40
77351;BME280;66420;50.246;14.320;2023-04-01T04:26:45;97999.81;;;8.28;78.00
77351;BME280;66420;50.246;14.320;2023-04-01T04:29:30;98002.09;;;8.18;79.05
77351;BME280;66420;50.246;14.320;2023-04-01T04:32:15;98011.22;;;8.22;79.17
77351;BME280;66420;50.246;14.320;2023-04-01T04:34:59;98009.63;;;8.21;78.24
77351;BME280;66420;50.246;14.320;2023-04-01T04:37:44;98013.94;;;8.22;78.50
77351;BME280;66420;50.246;14.320;2023-04-01T04:40:29;98019.38;;;8.22;77.83
77351;BME280;66420;50.246;14.320;2023-04-01T04:43:16;98008.50;;;8.22;77.92
77351;BME280;66420;50.246;14.320;2023-04-01T04:46:07;98010.09;;;8.23;78.04
77351;BME280;66420;50.246;14.320;2023-04-01T04:48:53;98010.56;;;8.25;77.09
77351;BME280;66420;50.246;14.320;2023-04-01T04:51:37;98015.66;;;8.26;77.58
77351;BME280;66420;50.246;14.320;2023-04-01T04:54:22;98018.75;;;8.25;77.99
77351;BME280;66420;50.246;14.320;2023-04-01T04:57:07;98018.13;;;8.19;77.59
77351;BME280;66420;50.246;14.320;2023-04-01T04:59:51;98013.69;;;8.15;77.72
77351;BME280;66420;50.246;14.320;2023-04-01T05:02:36;98016.53;;;8.18;77.48
77351;BME280;66420;50.246;14.320;2023-04-01T05:05:21;98014.63;;;8.19;77.03
77351;BME280;66420;50.246;14.320;2023-04-01T05:08:06;98018.00;;;8.16;77.40
77351;BME280;66420;50.246;14.320;2023-04-01T05:10:51;98024.72;;;8.18;77.45
77351;BME280;66420;50.246;14.320;2023-04-01T05:13:36;98028.56;;;8.17;77.83
77351;BME280;66420;50.246;14.320;2023-04-01T05:16:21;98031.09;;;8.22;77.08
77351;BME280;66420;50.246;14.320;2023-04-01T05:19:05;98038.94;;;8.24;76.58
77351;BME280;66420;50.246;14.320;2023-04-01T05:21:50;98034.63;;;8.23;76.87
77351;BME280;66420;50.246;14.320;2023-04-01T05:24:34;98035.56;;;8.27;76.74
77351;BME280;66420;50.246;14.320;2023-04-01T05:27:19;98034.44;;;8.28;77.34
77351;BME280;66420;50.246;14.320;2023-04-01T05:30:05;98034.91;;;8.30;76.37
77351;BME280;66420;50.246;14.320;2023-04-01T05:32:50;98033.63;;;8.27;77.15
77351;BME280;66420;50.246;14.320;2023-04-01T05:35:34;98036.03;;;8.29;76.50
77351;BME280;66420;50.246;14.320;2023-04-01T05:38:20;98049.03;;;8.32;76.50
77351;BME280;66420;50.246;14.320;2023-04-01T05:41:05;98038.94;;;8.32;76.93
77351;BME280;66420;50.246;14.320;2023-04-01T05:43:50;98041.66;;;8.32;77.14
77351;BME280;66420;50.246;14.320;2023-04-01T05:46:35;98045.63;;;8.35;76.94
77351;BME280;66420;50.246;14.320;2023-04-01T05:49:19;98044.19;;;8.37;76.49
77351;BME280;66420;50.246;14.320;2023-04-01T05:52:04;98041.09;;;8.39;76.64
77351;BME280;66420;50.246;14.320;2023-04-01T05:54:48;98041.09;;;8.39;76.86
77351;BME280;66420;50.246;14.320;2023-04-01T05:57:33;98034.72;;;8.35;77.50
77351;BME280;66420;50.246;14.320;2023-04-01T06:00:18;98038.88;;;8.41;77.33
77351;BME280;66420;50.246;14.320;2023-04-01T06:03:04;98054.72;;;8.48;77.19
77351;BME280;66420;50.246;14.320;2023-04-01T06:05:49;98047.78;;;8.50;76.96
77351;BME280;66420;50.246;14.320;2023-04-01T06:08:34;98050.31;;;8.55;76.49
77351;BME280;66420;50.246;14.320;2023-04-01T06:17:24;98047.25;;;8.57;76.12
77351;BME280;66420;50.246;14.320;2023-04-01T06:26:24;98063.50;;;8.74;76.16
77351;BME280;66420;50.246;14.320;2023-04-01T06:32:22;98064.75;;;8.76;76.31
77351;BME280;66420;50.246;14.320;2023-04-01T06:35:53;98065.34;;;8.82;77.01
77351;BME280;66420;50.246;14.320;2023-04-01T06:39:11;98067.75;;;8.83;76.54
77351;BME280;66420;50.246;14.320;2023-04-01T06:54:32;98072.84;;;9.06;76.45
77351;BME280;66420;50.246;14.320;2023-04-01T06:57:31;98075.81;;;9.13;76.62
77351;BME280;66420;50.246;14.320;2023-04-01T07:00:37;98072.88;;;9.18;75.98
77351;BME280;66420;50.246;14.320;2023-04-01T07:03:40;98083.38;;;9.16;75.41
77351;BME280;66420;50.246;14.320;2023-04-01T07:06:30;98073.44;;;9.11;76.97
77351;BME280;66420;50.246;14.320;2023-04-01T07:09:19;98077.97;;;9.07;77.63
77351;BME280;66420;50.246;14.320;2023-04-01T07:15:22;98072.06;;;9.05;78.61
77351;BME280;66420;50.246;14.320;2023-04-01T07:18:23;98074.44;;;9.07;78.49
77351;BME280;66420;50.246;14.320;2023-04-01T07:21:23;98080.13;;;9.02;79.26
77351;BME280;66420;50.246;14.320;2023-04-01T07:24:21;98080.00;;;8.98;78.46
77351;BME280;66420;50.246;14.320;2023-04-01T07:27:11;98077.09;;;8.95;79.24
77351;BME280;66420;50.246;14.320;2023-04-01T07:29:56;98084.88;;;9.05;78.80
77351;BME280;66420;50.246;14.320;2023-04-01T07:32:50;98087.31;;;9.06;77.76
77351;BME280;66420;50.246;14.320;2023-04-01T07:35:46;98085.63;;;9.14;78.14
77351;BME280;66420;50.246;14.320;2023-04-01T07:45:01;98083.59;;;9.23;75.83
77351;BME280;66420;50.246;14.320;2023-04-01T07:48:09;98093.41;;;9.24;75.18
77351;BME280;66420;50.246;14.320;2023-04-01T07:51:03;98092.72;;;9.27;76.52
77351;BME280;66420;50.246;14.320;2023-04-01T07:56:51;98089.25;;;9.39;75.75
77351;BME280;66420;50.246;14.320;2023-04-01T08:00:07;98100.28;;;9.42;75.20
77351;BME280;66420;50.246;14.320;2023-04-01T08:05:56;98095.34;;;9.68;74.43
77351;BME280;66420;50.246;14.320;2023-04-01T08:20:28;98090.63;;;10.50;70.68
77351;BME280;66420;50.246;14.320;2023-04-01T08:23:20;98100.19;;;10.68;71.12
77351;BME280;66420;50.246;14.320;2023-04-01T08:29:24;98093.81;;;10.77;69.64
77351;BME280;66420;50.246;14.320;2023-04-01T08:32:13;98093.31;;;10.87;68.92
77351;BME280;66420;50.246;14.320;2023-04-01T08:35:27;98102.91;;;11.21;69.73
77351;BME280;66420;50.246;14.320;2023-04-01T08:38:21;98098.13;;;11.18;67.66
77351;BME280;66420;50.246;14.320;2023-04-01T08:41:23;98106.03;;;11.07;67.25
77351;BME280;66420;50.246;14.320;2023-04-01T08:47:19;98092.69;;;11.33;66.56
77351;BME280;66420;50.246;14.320;2023-04-01T08:50:23;98087.63;;;11.47;66.99
77351;BME280;66420;50.246;14.320;2023-04-01T09:02:41;98084.06;;;11.75;63.84
77351;BME280;66420;50.246;14.320;2023-04-01T09:15:36;98097.44;;;12.08;63.36
77351;BME280;66420;50.246;14.320;2023-04-01T09:18:48;98096.84;;;12.14;63.26
77351;BME280;66420;50.246;14.320;2023-04-01T09:22:13;98094.59;;;11.88;61.97
77351;BME280;66420;50.246;14.320;2023-04-01T09:25:21;98100.44;;;12.03;62.97
77351;BME280;66420;50.246;14.320;2023-04-01T09:28:09;98102.41;;;12.18;61.95
77351;BME280;66420;50.246;14.320;2023-04-01T09:52:14;98114.94;;;11.60;62.32
77351;BME280;66420;50.246;14.320;2023-04-01T09:58:22;98121.53;;;11.43;64.92
77351;BME280;66420;50.246;14.320;2023-04-01T10:01:40;98113.41;;;11.46;64.33
77351;BME280;66420;50.246;14.320;2023-04-01T10:08:25;98112.06;;;11.68;62.23
77351;BME280;66420;50.246;14.320;2023-04-01T10:11:41;98110.25;;;11.88;61.70
77351;BME280;66420;50.246;14.320;2023-04-01T10:27:10;98105.13;;;12.49;57.82
77351;BME280;66420;50.246;14.320;2023-04-01T10:33:30;98110.06;;;12.43;57.03
77351;BME280;66420;50.246;14.320;2023-04-01T10:36:46;98088.09;;;12.59;56.79
77351;BME280;66420;50.246;14.320;2023-04-01T11:21:18;98089.34;;;13.96;54.82
77351;BME280;66420;50.246;14.320;2023-04-01T11:27:42;98092.91;;;13.36;56.16
77351;BME280;66420;50.246;14.320;2023-04-01T11:36:56;98105.16;;;13.03;57.34
77351;BME280;66420;50.246;14.320;2023-04-01T11:42:54;98095.75;;;13.04;56.18
77351;BME280;66420;50.246;14.320;2023-04-01T11:46:11;98105.50;;;13.37;56.13
77351;BME280;66420;50.246;14.320;2023-04-01T11:52:30;98103.09;;;14.19;55.08
77351;BME280;66420;50.246;14.320;2023-04-01T12:02:03;98118.88;;;13.80;54.74
77351;BME280;66420;50.246;14.320;2023-04-01T12:13:53;98111.50;;;14.75;53.46
77351;BME280;66420;50.246;14.320;2023-04-01T12:23:37;98120.56;;;14.07;53.11
77351;BME280;66420;50.246;14.320;2023-04-01T12:33:02;98120.38;;;13.74;57.14
77351;BME280;66420;50.246;14.320;2023-04-01T12:36:13;98125.09;;;13.35;57.57
77351;BME280;66420;50.246;14.320;2023-04-01T12:51:11;98134.25;;;14.27;56.12
77351;BME280;66420;50.246;14.320;2023-04-01T12:54:22;98131.94;;;14.29;55.17
77351;BME280;66420;50.246;14.320;2023-04-01T13:00:30;98133.97;;;13.67;55.42
77351;BME280;66420;50.246;14.320;2023-04-01T13:12:28;98130.28;;;13.79;56.57
77351;BME280;66420;50.246;14.320;2023-04-01T13:15:24;98138.59;;;14.05;56.87
77351;BME280;66420;50.246;14.320;2023-04-01T13:42:38;98131.25;;;13.90;53.91
77351;BME280;66420;50.246;14.320;2023-04-01T13:45:25;98122.38;;;13.77;54.15
77351;BME280;66420;50.246;14.320;2023-04-01T13:48:30;98123.75;;;13.67;53.33
77351;BME280;66420;50.246;14.320;2023-04-01T14:11:17;98141.38;;;12.74;60.91
77351;BME280;66420;50.246;14.320;2023-04-01T14:17:48;98135.00;;;12.70;60.61
77351;BME280;66420;50.246;14.320;2023-04-01T14:24:22;98133.06;;;13.05;61.66
77351;BME280;66420;50.246;14.320;2023-04-01T14:27:29;98128.91;;;13.11;60.17
77351;BME280;66420;50.246;14.320;2023-04-01T14:33:51;98134.50;;;13.15;59.71
77351;BME280;66420;50.246;14.320;2023-04-01T14:39:36;98143.88;;;13.14;57.52
77351;BME280;66420;50.246;14.320;2023-04-01T14:45:41;98148.75;;;13.05;58.08
77351;BME280;66420;50.246;14.320;2023-04-01T14:48:49;98143.28;;;12.89;58.44
77351;BME280;66420;50.246;14.320;2023-04-01T14:51:36;98149.66;;;12.93;58.55
77351;BME280;66420;50.246;14.320;2023-04-01T14:54:38;98139.97;;;13.15;58.25
77351;BME280;66420;50.246;14.320;2023-04-01T14:57:30;98145.28;;;13.43;58.83
77351;BME280;66420;50.246;14.320;2023-04-01T15:00:19;98138.59;;;13.44;55.57
77351;BME280;66420;50.246;14.320;2023-04-01T15:03:33;98140.47;;;13.78;56.13
77351;BME280;66420;50.246;14.320;2023-04-01T15:13:02;98160.88;;;13.39;55.50
77351;BME280;66420;50.246;14.320;2023-04-01T15:28:36;98163.66;;;12.88;58.40
77351;BME280;66420;50.246;14.320;2023-04-01T15:31:47;98162.69;;;12.80;59.50
77351;BME280;66420;50.246;14.320;2023-04-01T15:40:30;98169.53;;;12.71;58.63
77351;BME280;66420;50.246;14.320;2023-04-01T15:55:59;98186.28;;;12.34;60.78
77351;BME280;66420;50.246;14.320;2023-04-01T15:59:18;98190.88;;;12.30;61.20
77351;BME280;66420;50.246;14.320;2023-04-01T16:11:28;98195.31;;;12.35;62.53
77351;BME280;66420;50.246;14.320;2023-04-01T16:14:24;98207.34;;;12.30;62.23
77351;BME280;66420;50.246;14.320;2023-04-01T16:26:36;98212.22;;;11.93;61.10
77351;BME280;66420;50.246;14.320;2023-04-01T16:32:34;98216.03;;;11.89;61.04
77351;BME280;66420;50.246;14.320;2023-04-01T16:38:11;98223.59;;;11.80;61.74
77351;BME280;66420;50.246;14.320;2023-04-01T16:43:48;98231.63;;;11.73;62.77
77351;BME280;66420;50.246;14.320;2023-04-01T16:47:06;98230.69;;;11.69;62.85
77351;BME280;66420;50.246;14.320;2023-04-01T16:50:19;98241.34;;;11.58;62.53
77351;BME280;66420;50.246;14.320;2023-04-01T16:56:16;98249.72;;;11.49;63.14
77351;BME280;66420;50.246;14.320;2023-04-01T16:59:22;98253.38;;;11.41;63.56
77351;BME280;66420;50.246;14.320;2023-04-01T17:02:13;98260.47;;;11.30;63.42
77351;BME280;66420;50.246;14.320;2023-04-01T17:05:11;98270.75;;;11.21;64.13
77351;BME280;66420;50.246;14.320;2023-04-01T17:11:19;98270.75;;;11.09;65.15
77351;BME280;66420;50.246;14.320;2023-04-01T17:14:14;98276.47;;;10.92;65.58
77351;BME280;66420;50.246;14.320;2023-04-01T17:26:16;98294.25;;;10.74;66.61
77351;BME280;66420;50.246;14.320;2023-04-01T17:32:34;98300.63;;;10.65;67.36
77351;BME280;66420;50.246;14.320;2023-04-01T17:35:35;98300.38;;;10.58;67.86
77351;BME280;66420;50.246;14.320;2023-04-01T17:41:53;98306.72;;;10.50;69.17
77351;BME280;66420;50.246;14.320;2023-04-01T17:47:36;98302.16;;;10.42;69.67
77351;BME280;66420;50.246;14.320;2023-04-01T17:50:44;98307.75;;;10.46;69.45
77351;BME280;66420;50.246;14.320;2023-04-01T17:54:34;98321.31;;;10.42;69.79
77351;BME280;66420;50.246;14.320;2023-04-01T17:57:32;98320.06;;;10.40;70.18
77351;BME280;66420;50.246;14.320;2023-04-01T18:09:45;98326.06;;;10.33;71.08
77351;BME280;66420;50.246;14.320;2023-04-01T18:22:19;98342.88;;;10.23;71.17
77351;BME280;66420;50.246;14.320;2023-04-01T18:25:28;98344.88;;;10.14;71.81
77351;BME280;66420;50.246;14.320;2023-04-01T18:28:36;98351.00;;;10.11;71.87
77351;BME280;66420;50.246;14.320;2023-04-01T18:31:25;98353.28;;;10.09;71.67
77351;BME280;66420;50.246;14.320;2023-04-01T18:37:31;98363.06;;;10.10;71.88
77351;BME280;66420;50.246;14.320;2023-04-01T18:40:37;98363.28;;;10.05;71.75
77351;BME280;66420;50.246;14.320;2023-04-01T18:43:59;98367.00;;;10.00;71.94
77351;BME280;66420;50.246;14.320;2023-04-01T18:47:07;98371.03;;;10.03;72.13
77351;BME280;66420;50.246;14.320;2023-04-01T18:53:22;98380.06;;;9.95;72.26
77351;BME280;66420;50.246;14.320;2023-04-01T18:56:24;98381.69;;;9.96;71.86
77351;BME280;66420;50.246;14.320;2023-04-01T18:59:33;98383.03;;;9.90;71.99
77351;BME280;66420;50.246;14.320;2023-04-01T19:08:28;98385.66;;;9.77;72.84
77351;BME280;66420;50.246;14.320;2023-04-01T19:11:39;98394.66;;;9.78;72.95
77351;BME280;66420;50.246;14.320;2023-04-01T19:20:42;98404.53;;;9.70;73.51
77351;BME280;66420;50.246;14.320;2023-04-01T19:26:39;98400.06;;;9.66;73.55
77351;BME280;66420;50.246;14.320;2023-04-01T19:41:48;98420.81;;;9.58;74.91
77351;BME280;66420;50.246;14.320;2023-04-01T19:44:59;98418.06;;;9.58;74.64
77351;BME280;66420;50.246;14.320;2023-04-01T19:51:07;98420.41;;;9.48;74.96
77351;BME280;66420;50.246;14.320;2023-04-01T19:57:21;98430.84;;;9.46;76.21
77351;BME280;66420;50.246;14.320;2023-04-01T20:00:29;98428.78;;;9.43;75.50
77351;BME280;66420;50.246;14.320;2023-04-01T20:10:22;98438.59;;;9.35;76.65
77351;BME280;66420;50.246;14.320;2023-04-01T20:16:14;98437.34;;;9.24;77.32
77351;BME280;66420;50.246;14.320;2023-04-01T20:19:02;98446.00;;;9.26;77.67
77351;BME280;66420;50.246;14.320;2023-04-01T20:21:49;98447.16;;;9.25;77.41
77351;BME280;66420;50.246;14.320;2023-04-01T20:24:43;98440.59;;;9.17;77.84
77351;BME280;66420;50.246;14.320;2023-04-01T20:27:33;98443.03;;;9.10;78.35
77351;BME280;66420;50.246;14.320;2023-04-01T20:30:44;98449.91;;;9.08;78.84
77351;BME280;66420;50.246;14.320;2023-04-01T20:36:46;98456.69;;;9.02;80.01
77351;BME280;66420;50.246;14.320;2023-04-01T20:43:20;98459.59;;;8.97;79.39
77351;BME280;66420;50.246;14.320;2023-04-01T20:46:12;98461.66;;;9.00;79.41
77351;BME280;66420;50.246;14.320;2023-04-01T21:01:34;98479.69;;;8.92;79.36
77351;BME280;66420;50.246;14.320;2023-04-01T21:11:18;98471.81;;;8.90;79.92
77351;BME280;66420;50.246;14.320;2023-04-01T21:16:58;98482.25;;;8.88;80.70
77351;BME280;66420;50.246;14.320;2023-04-01T21:20:38;98484.00;;;8.84;80.61
77351;BME280;66420;50.246;14.320;2023-04-01T21:26:31;98484.66;;;8.81;80.49
77351;BME280;66420;50.246;14.320;2023-04-01T21:29:47;98490.44;;;8.80;80.14
77351;BME280;66420;50.246;14.320;2023-04-01T21:39:18;98503.91;;;8.76;81.01
77351;BME280;66420;50.246;14.320;2023-04-01T21:55:26;98522.84;;;8.81;79.22
77351;BME280;66420;50.246;14.320;2023-04-01T22:01:35;98514.97;;;8.80;78.74
77351;BME280;66420;50.246;14.320;2023-04-01T22:04:44;98523.66;;;8.73;79.98
77351;BME280;66420;50.246;14.320;2023-04-01T22:07:59;98524.78;;;8.72;79.16
77351;BME280;66420;50.246;14.320;2023-04-01T22:10:55;98523.00;;;8.76;78.54
77351;BME280;66420;50.246;14.320;2023-04-01T22:14:02;98526.41;;;8.73;79.77
77351;BME280;66420;50.246;14.320;2023-04-01T22:16:56;98526.41;;;8.73;79.34
77351;BME280;66420;50.246;14.320;2023-04-01T22:31:48;98539.72;;;8.75;81.05
77351;BME280;66420;50.246;14.320;2023-04-01T22:34:46;98547.25;;;8.69;81.31
77351;BME280;66420;50.246;14.320;2023-04-01T22:37:49;98544.84;;;8.68;80.48
77351;BME280;66420;50.246;14.320;2023-04-01T22:43:44;98550.78;;;8.70;81.35
77351;BME280;66420;50.246;14.320;2023-04-01T22:46:53;98552.22;;;8.67;82.11
77351;BME280;66420;50.246;14.320;2023-04-01T22:49:51;98555.91;;;8.63;81.83
77351;BME280;66420;50.246;14.320;2023-04-01T22:52:41;98562.00;;;8.60;81.37
77351;BME280;66420;50.246;14.320;2023-04-01T22:55:33;98555.44;;;8.61;81.76
77351;BME280;66420;50.246;14.320;2023-04-01T22:58:30;98557.66;;;8.59;80.76
77351;BME280;66420;50.246;14.320;2023-04-01T23:01:24;98557.03;;;8.62;81.84
77351;BME280;66420;50.246;14.320;2023-04-01T23:04:14;98567.31;;;8.65;80.85
77351;BME280;66420;50.246;14.320;2023-04-01T23:07:04;98562.00;;;8.68;80.35
77351;BME280;66420;50.246;14.320;2023-04-01T23:10:02;98564.09;;;8.71;80.57
77351;BME280;66420;50.246;14.320;2023-04-01T23:12:51;98560.41;;;8.67;80.47
77351;BME280;66420;50.246;14.320;2023-04-01T23:15:38;98565.03;;;8.67;80.42
77351;BME280;66420;50.246;14.320;2023-04-01T23:18:42;98566.81;;;8.71;80.35
77351;BME280;66420;50.246;14.320;2023-04-01T23:21:44;98578.06;;;8.70;81.50
77351;BME280;66420;50.246;14.320;2023-04-01T23:24:49;98569.88;;;8.61;80.88
77351;BME280;66420;50.246;14.320;2023-04-01T23:27:42;98580.44;;;8.54;81.63
77351;BME280;66420;50.246;14.320;2023-04-01T23:33:27;98573.72;;;8.52;83.08
77351;BME280;66420;50.246;14.320;2023-04-01T23:36:14;98578.22;;;8.48;82.09
77351;BME280;66420;50.246;14.320;2023-04-01T23:39:04;98585.09;;;8.45;83.15
77351;BME280;66420;50.246;14.320;2023-04-01T23:42:00;98593.75;;;8.47;82.22
77351;BME280;66420;50.246;14.320;2023-04-01T23:44:49;98598.56;;;8.50;81.88
77351;BME280;66420;50.246;14.320;2023-04-01T23:47:39;98600.66;;;8.53;81.46
77351;BME280;66420;50.246;14.320;2023-04-01T23:50:26;98594.72;;;8.51;81.09
77351;BME280;66420;50.246;14.320;2023-04-01T23:53:21;98608.03;;;8.53;81.86
77351;BME280;66420;50.246;14.320;2023-04-01T23:56:07;98608.22;;;8.56;81.90
77351;BME280;66420;50.246;14.320;2023-04-01T23:58:52;98604.69;;;8.56;81.03
